createdAt,value
2019-02-23T00:00:19.734Z,16.00
2019-02-23T00:01:19.792Z,16.00
2019-02-23T00:02:19.709Z,16.00
2019-02-23T00:03:19.718Z,16.00
2019-02-23T00:04:20.118Z,16.00
2019-02-23T00:05:19.693Z,16.00
2019-02-23T00:06:29.469Z,16.00
2019-02-23T00:07:20.866Z,16.00
2019-02-23T00:08:19.643Z,16.00
2019-02-23T00:09:19.659Z,16.00
2019-02-23T00:10:19.656Z,16.00
2019-02-23T00:11:19.960Z,16.00
2019-02-23T00:12:19.617Z,16.00
2019-02-23T00:13:19.663Z,16.00
2019-02-23T00:14:19.586Z,16.00
2019-02-23T00:15:19.594Z,16.00
2019-02-23T00:16:19.620Z,16.00
2019-02-23T00:17:19.554Z,16.00
2019-02-23T00:18:19.576Z,16.00
2019-02-23T00:19:24.994Z,16.00
2019-02-23T00:20:20.527Z,16.00
2019-02-23T00:21:19.523Z,16.00
2019-02-23T00:22:19.520Z,16.00
2019-02-23T00:23:19.493Z,16.00
2019-02-23T00:24:20.882Z,16.00
2019-02-23T00:25:19.573Z,16.00
2019-02-23T00:26:19.468Z,16.00
2019-02-23T00:27:19.464Z,16.00
2019-02-23T00:28:19.453Z,16.00
2019-02-23T00:29:19.452Z,16.00
2019-02-23T00:30:20.292Z,16.00
2019-02-23T00:31:19.498Z,16.00
2019-02-23T00:32:19.398Z,16.00
2019-02-23T00:33:19.395Z,16.00
2019-02-23T00:34:19.391Z,16.00
2019-02-23T00:35:19.366Z,16.00
2019-02-23T00:36:19.753Z,16.00
2019-02-23T00:37:19.696Z,16.00
2019-02-23T00:38:19.348Z,16.00
2019-02-23T00:39:19.336Z,16.00
2019-02-23T00:40:19.312Z,16.00
2019-02-23T00:41:19.321Z,16.00
2019-02-23T00:42:19.322Z,16.00
2019-02-23T00:43:19.328Z,16.00
2019-02-23T00:44:19.272Z,16.00
2019-02-23T00:45:19.343Z,16.00
2019-02-23T00:46:19.262Z,16.00
2019-02-23T00:47:19.236Z,16.00
2019-02-23T00:48:19.248Z,16.00
2019-02-23T00:49:19.341Z,16.00
2019-02-23T00:50:19.231Z,16.00
2019-02-23T00:51:19.223Z,16.00
2019-02-23T00:52:19.197Z,16.00
2019-02-23T00:53:19.187Z,16.00
2019-02-23T00:54:19.621Z,16.00
2019-02-23T00:55:19.458Z,16.00
2019-02-23T00:56:19.168Z,16.00
2019-02-23T00:57:19.147Z,16.00
2019-02-23T00:58:19.138Z,16.00
2019-02-23T00:59:19.124Z,16.00
2019-02-23T01:00:19.118Z,20.00
2019-02-23T01:01:19.173Z,20.00
2019-02-23T01:02:19.091Z,20.00
2019-02-23T01:03:19.084Z,20.00
2019-02-23T01:04:19.068Z,20.00
2019-02-23T01:05:19.077Z,20.00
2019-02-23T01:06:19.059Z,20.00
2019-02-23T01:07:19.532Z,20.00
2019-02-23T01:08:19.041Z,20.00
2019-02-23T01:09:19.018Z,20.00
2019-02-23T01:10:19.793Z,20.00
2019-02-23T01:11:19.825Z,20.00
2019-02-23T01:12:18.990Z,20.00
2019-02-23T01:13:20.002Z,20.00
2019-02-23T01:14:18.976Z,20.00
2019-02-23T01:15:18.967Z,20.00
2019-02-23T01:16:18.947Z,20.00
2019-02-23T01:17:18.943Z,20.00
2019-02-23T01:18:18.957Z,20.00
2019-02-23T01:19:19.440Z,20.00
2019-02-23T01:20:18.927Z,20.00
2019-02-23T01:21:18.898Z,20.00
2019-02-23T01:22:18.884Z,20.00
2019-02-23T01:23:18.880Z,20.00
2019-02-23T01:24:18.877Z,20.00
2019-02-23T01:25:18.928Z,20.00
2019-02-23T01:26:18.887Z,20.00
2019-02-23T01:27:18.830Z,20.00
2019-02-23T01:28:18.820Z,16.00
2019-02-23T01:29:18.828Z,16.00
2019-02-23T01:30:18.809Z,20.00
2019-02-23T01:31:18.967Z,20.00
2019-02-23T01:32:18.800Z,20.00
2019-02-23T01:33:18.777Z,20.00
2019-02-23T01:34:18.776Z,20.00
2019-02-23T01:35:18.757Z,20.00
2019-02-23T01:36:18.743Z,20.00
2019-02-23T01:37:19.337Z,20.00
2019-02-23T01:38:18.727Z,20.00
2019-02-23T01:39:18.715Z,20.00
2019-02-23T01:40:18.706Z,20.00
2019-02-23T01:41:18.694Z,20.00
2019-02-23T01:42:18.681Z,20.00
2019-02-23T01:43:19.039Z,20.00
2019-02-23T01:44:19.131Z,20.00
2019-02-23T01:45:18.652Z,20.00
2019-02-23T01:46:18.643Z,20.00
2019-02-23T01:47:18.641Z,20.00
2019-02-23T01:48:18.609Z,16.00
2019-02-23T01:49:18.966Z,20.00
2019-02-23T01:50:18.589Z,20.00
2019-02-23T01:51:18.947Z,20.00
2019-02-23T01:52:18.563Z,20.00
2019-02-23T01:53:18.553Z,20.00
2019-02-23T01:54:18.648Z,20.00
2019-02-23T01:55:18.889Z,20.00
2019-02-23T01:56:18.527Z,20.00
2019-02-23T01:57:18.519Z,20.00
2019-02-23T01:58:19.002Z,20.00
2019-02-23T01:59:18.501Z,20.00
2019-02-23T02:00:18.499Z,20.00
2019-02-23T02:01:18.506Z,20.00
2019-02-23T02:02:18.506Z,20.00
2019-02-23T02:03:18.488Z,20.00
2019-02-23T02:04:18.437Z,20.00
2019-02-23T02:05:18.853Z,20.00
2019-02-23T02:06:18.792Z,20.00
2019-02-23T02:07:18.467Z,20.00
2019-02-23T02:08:18.447Z,20.00
2019-02-23T02:09:18.391Z,20.00
2019-02-23T02:10:18.402Z,20.00
2019-02-23T02:11:18.387Z,16.00
2019-02-23T02:12:18.682Z,16.00
2019-02-23T02:13:18.393Z,20.00
2019-02-23T02:14:18.328Z,16.00
2019-02-23T02:15:18.336Z,16.00
2019-02-23T02:16:18.318Z,16.00
2019-02-23T02:17:18.310Z,16.00
2019-02-23T02:18:18.296Z,16.00
2019-02-23T02:19:18.769Z,16.00
2019-02-23T02:20:18.277Z,16.00
2019-02-23T02:21:18.277Z,16.00
2019-02-23T02:22:18.253Z,16.00
2019-02-23T02:23:18.269Z,16.00
2019-02-23T02:24:18.228Z,16.00
2019-02-23T02:25:18.597Z,16.00
2019-02-23T02:26:19.595Z,16.00
2019-02-23T02:27:18.198Z,16.00
2019-02-23T02:28:18.197Z,16.00
2019-02-23T02:29:18.168Z,16.00
2019-02-23T02:30:18.266Z,16.00
2019-02-23T02:31:18.214Z,16.00
2019-02-23T02:32:18.169Z,16.00
2019-02-23T02:33:18.616Z,16.00
2019-02-23T02:34:18.149Z,16.00
2019-02-23T02:35:18.128Z,16.00
2019-02-23T02:36:18.163Z,16.00
2019-02-23T02:37:18.121Z,16.00
2019-02-23T02:38:18.081Z,16.00
2019-02-23T02:39:18.136Z,16.00
2019-02-23T02:40:18.474Z,16.00
2019-02-23T02:41:18.056Z,16.00
2019-02-23T02:42:18.051Z,16.00
2019-02-23T02:43:18.086Z,16.00
2019-02-23T02:44:18.020Z,16.00
2019-02-23T02:45:18.013Z,16.00
2019-02-23T02:46:18.008Z,16.00
2019-02-23T02:47:18.495Z,16.00
2019-02-23T02:48:17.979Z,16.00
2019-02-23T02:49:18.017Z,16.00
2019-02-23T02:50:24.362Z,16.00
2019-02-23T02:51:18.937Z,16.00
2019-02-23T02:52:17.946Z,16.00
2019-02-23T02:53:17.927Z,16.00
2019-02-23T02:54:18.338Z,16.00
2019-02-23T02:55:17.932Z,16.00
2019-02-23T02:56:17.892Z,16.00
2019-02-23T02:57:17.888Z,16.00
2019-02-23T02:58:17.891Z,16.00
2019-02-23T02:59:17.889Z,16.00
2019-02-23T03:01:36.583Z,16.00
2019-02-23T03:02:36.229Z,16.00
2019-02-23T03:03:36.226Z,16.00
2019-02-23T03:04:36.208Z,16.00
2019-02-23T03:05:36.203Z,16.00
2019-02-23T03:06:36.192Z,16.00
2019-02-23T03:07:36.216Z,16.00
2019-02-23T03:08:36.562Z,16.00
2019-02-23T03:09:36.151Z,16.00
2019-02-23T03:10:36.147Z,16.00
2019-02-23T03:11:36.132Z,16.00
2019-02-23T03:12:36.125Z,16.00
2019-02-23T03:13:36.141Z,16.00
2019-02-23T03:14:36.136Z,16.00
2019-02-23T03:15:36.442Z,16.00
2019-02-23T03:16:36.071Z,16.00
2019-02-23T03:17:36.062Z,16.00
2019-02-23T03:18:36.072Z,16.00
2019-02-23T03:19:36.266Z,16.00
2019-02-23T03:20:36.991Z,16.00
2019-02-23T03:21:36.032Z,16.00
2019-02-23T03:22:36.328Z,16.00
2019-02-23T03:23:36.006Z,16.00
2019-02-23T03:24:36.043Z,16.00
2019-02-23T03:25:36.022Z,16.00
2019-02-23T03:26:35.969Z,16.00
2019-02-23T03:27:36.783Z,16.00
2019-02-23T03:28:35.952Z,16.00
2019-02-23T03:29:36.256Z,16.00
2019-02-23T03:30:35.979Z,16.00
2019-02-23T03:31:35.982Z,16.00
2019-02-23T03:32:35.932Z,16.00
2019-02-23T03:33:35.924Z,16.00
2019-02-23T03:34:35.911Z,16.00
2019-02-23T03:35:35.885Z,16.00
2019-02-23T03:36:36.287Z,16.00
2019-02-23T03:37:36.178Z,16.00
2019-02-23T03:38:35.882Z,16.00
2019-02-23T03:39:35.834Z,16.00
2019-02-23T03:40:35.827Z,16.00
2019-02-23T03:41:35.815Z,16.00
2019-02-23T03:42:35.808Z,16.00
2019-02-23T03:43:36.141Z,16.00
2019-02-23T03:44:35.776Z,16.00
2019-02-23T03:45:35.775Z,16.00
2019-02-23T03:46:35.763Z,16.00
2019-02-23T03:47:35.817Z,16.00
2019-02-23T03:48:35.853Z,16.00
2019-02-23T03:49:35.791Z,16.00
2019-02-23T03:50:36.019Z,16.00
2019-02-23T03:51:35.712Z,16.00
2019-02-23T03:52:35.698Z,16.00
2019-02-23T03:53:35.707Z,16.00
2019-02-23T03:54:35.681Z,16.00
2019-02-23T03:55:36.237Z,16.00
2019-02-23T03:56:35.664Z,16.00
2019-02-23T03:57:37.004Z,16.00
2019-02-23T03:58:35.647Z,16.00
2019-02-23T03:59:35.634Z,16.00
2019-02-23T04:00:35.620Z,16.00
2019-02-23T04:01:35.644Z,16.00
2019-02-23T04:02:35.631Z,16.00
2019-02-23T04:03:35.599Z,16.00
2019-02-23T04:04:35.883Z,16.00
2019-02-23T04:05:35.567Z,16.00
2019-02-23T04:06:35.565Z,16.00
2019-02-23T04:07:35.617Z,16.00
2019-02-23T04:08:35.537Z,16.00
2019-02-23T04:09:35.532Z,16.00
2019-02-23T04:10:35.556Z,16.00
2019-02-23T04:11:35.848Z,16.00
2019-02-23T04:12:35.542Z,16.00
2019-02-23T04:13:35.557Z,16.00
2019-02-23T04:14:35.513Z,16.00
2019-02-23T04:15:35.479Z,16.00
2019-02-23T04:16:35.454Z,16.00
2019-02-23T04:17:35.476Z,16.00
2019-02-23T04:18:35.743Z,16.00
2019-02-23T04:19:35.466Z,16.00
2019-02-23T04:20:35.427Z,16.00
2019-02-23T04:21:35.411Z,16.00
2019-02-23T04:22:35.389Z,16.00
2019-02-23T04:23:35.438Z,16.00
2019-02-23T04:24:35.378Z,16.00
2019-02-23T04:25:35.689Z,16.00
2019-02-23T04:26:35.350Z,16.00
2019-02-23T04:27:35.375Z,16.00
2019-02-23T04:28:35.351Z,16.00
2019-02-23T04:29:35.336Z,16.00
2019-02-23T04:30:35.319Z,16.00
2019-02-23T04:31:36.070Z,16.00
2019-02-23T04:32:35.308Z,16.00
2019-02-23T04:33:35.278Z,16.00
2019-02-23T04:34:35.279Z,16.00
2019-02-23T04:35:35.278Z,20.00
2019-02-23T04:36:35.253Z,16.00
2019-02-23T04:37:35.274Z,16.00
2019-02-23T04:38:35.542Z,16.00
2019-02-23T04:39:35.274Z,16.00
2019-02-23T04:40:35.246Z,16.00
2019-02-23T04:41:35.231Z,16.00
2019-02-23T04:42:35.203Z,16.00
2019-02-23T04:43:35.215Z,16.00
2019-02-23T04:44:35.191Z,20.00
2019-02-23T04:45:35.476Z,20.00
2019-02-23T04:46:35.170Z,16.00
2019-02-23T04:47:35.138Z,16.00
2019-02-23T04:48:35.159Z,16.00
2019-02-23T04:49:35.432Z,20.00
2019-02-23T04:50:35.118Z,20.00
2019-02-23T04:51:35.112Z,16.00
2019-02-23T04:52:35.423Z,16.00
2019-02-23T04:53:35.758Z,16.00
2019-02-23T04:54:35.092Z,16.00
2019-02-23T04:55:35.295Z,16.00
2019-02-23T04:56:35.043Z,16.00
2019-02-23T04:57:35.133Z,16.00
2019-02-23T04:58:35.027Z,16.00
2019-02-23T04:59:36.056Z,16.00
2019-02-23T05:00:34.999Z,16.00
2019-02-23T05:01:35.091Z,16.00
2019-02-23T05:02:35.008Z,16.00
2019-02-23T05:03:35.004Z,16.00
2019-02-23T05:04:34.977Z,16.00
2019-02-23T05:05:34.947Z,20.00
2019-02-23T05:06:36.443Z,16.00
2019-02-23T05:07:35.781Z,20.00
2019-02-23T05:08:35.005Z,16.00
2019-02-23T05:09:34.968Z,16.00
2019-02-23T05:10:34.905Z,16.00
2019-02-23T05:11:34.906Z,16.00
2019-02-23T05:12:34.884Z,16.00
2019-02-23T05:13:36.320Z,16.00
2019-02-23T05:14:34.863Z,16.00
2019-02-23T05:15:34.859Z,16.00
2019-02-23T05:16:34.850Z,16.00
2019-02-23T05:17:34.848Z,16.00
2019-02-23T05:18:34.829Z,16.00
2019-02-23T05:19:34.847Z,16.00
2019-02-23T05:20:35.325Z,16.00
2019-02-23T05:21:34.803Z,16.00
2019-02-23T05:22:34.802Z,20.00
2019-02-23T05:23:34.812Z,16.00
2019-02-23T05:24:34.782Z,16.00
2019-02-23T05:25:34.842Z,20.00
2019-02-23T05:26:34.813Z,16.00
2019-02-23T05:27:35.137Z,16.00
2019-02-23T05:28:34.728Z,16.00
2019-02-23T05:29:34.721Z,16.00
2019-02-23T05:30:34.731Z,16.00
2019-02-23T05:31:34.730Z,20.00
2019-02-23T05:32:34.691Z,16.00
2019-02-23T05:33:34.693Z,16.00
2019-02-23T05:34:36.198Z,16.00
2019-02-23T05:35:34.643Z,16.00
2019-02-23T05:36:34.635Z,20.00
2019-02-23T05:37:34.669Z,20.00
2019-02-23T05:38:34.622Z,20.00
2019-02-23T05:39:34.617Z,16.00
2019-02-23T05:40:34.592Z,20.00
2019-02-23T05:41:35.187Z,20.00
2019-02-23T05:42:34.587Z,20.00
2019-02-23T05:43:34.659Z,20.00
2019-02-23T05:44:34.562Z,16.00
2019-02-23T05:45:35.236Z,20.00
2019-02-23T05:46:34.628Z,20.00
2019-02-23T05:47:34.540Z,16.00
2019-02-23T05:48:35.065Z,16.00
2019-02-23T05:49:37.022Z,20.00
2019-02-23T05:50:34.491Z,20.00
2019-02-23T05:51:38.634Z,16.00
2019-02-23T05:52:34.467Z,16.00
2019-02-23T05:53:34.527Z,20.00
2019-02-23T05:54:34.454Z,20.00
2019-02-23T05:55:34.948Z,20.00
2019-02-23T05:56:34.472Z,20.00
2019-02-23T05:57:34.454Z,20.00
2019-02-23T05:58:34.458Z,20.00
2019-02-23T05:59:34.409Z,24.00
2019-02-23T06:00:34.389Z,24.00
2019-02-23T06:01:34.689Z,20.00
2019-02-23T06:02:34.730Z,24.00
2019-02-23T06:03:34.352Z,28.00
2019-02-23T06:04:34.359Z,24.00
2019-02-23T06:05:34.359Z,28.00
2019-02-23T06:06:34.333Z,28.00
2019-02-23T06:07:34.373Z,32.00
2019-02-23T06:08:34.328Z,32.00
2019-02-23T06:09:34.772Z,36.00
2019-02-23T06:10:34.316Z,40.00
2019-02-23T06:11:34.381Z,44.00
2019-02-23T06:12:34.286Z,48.00
2019-02-23T06:13:34.466Z,52.00
2019-02-23T06:14:34.244Z,60.00
2019-02-23T06:15:34.261Z,60.00
2019-02-23T06:16:34.621Z,68.00
2019-02-23T06:17:34.233Z,76.00
2019-02-23T06:18:34.286Z,80.00
2019-02-23T06:19:34.393Z,88.00
2019-02-23T06:20:34.312Z,92.00
2019-02-23T06:21:34.232Z,100.00
2019-02-23T06:22:34.212Z,108.00
2019-02-23T06:23:34.677Z,100.00
2019-02-23T06:24:34.147Z,108.00
2019-02-23T06:25:34.293Z,120.00
2019-02-23T06:26:34.131Z,132.00
2019-02-23T06:27:34.133Z,144.00
2019-02-23T06:28:34.133Z,160.00
2019-02-23T06:29:34.105Z,176.00
2019-02-23T06:30:35.583Z,192.00
2019-02-23T06:31:34.129Z,208.00
2019-02-23T06:32:34.069Z,228.00
2019-02-23T06:33:34.054Z,248.00
2019-02-23T06:34:34.087Z,268.00
2019-02-23T06:35:34.043Z,288.00
2019-02-23T06:36:34.032Z,316.00
2019-02-23T06:37:35.812Z,336.00
2019-02-23T06:38:33.996Z,364.00
2019-02-23T06:39:34.087Z,392.00
2019-02-23T06:40:33.981Z,424.00
2019-02-23T06:41:33.991Z,452.00
2019-02-23T06:42:33.981Z,484.00
2019-02-23T06:43:33.979Z,516.00
2019-02-23T06:44:34.398Z,548.00
2019-02-23T06:45:33.929Z,580.00
2019-02-23T06:46:34.727Z,616.00
2019-02-23T06:47:33.913Z,652.00
2019-02-23T06:48:33.894Z,688.00
2019-02-23T06:49:33.923Z,724.00
2019-02-23T06:50:33.866Z,764.00
2019-02-23T06:51:34.251Z,812.00
2019-02-23T06:52:33.866Z,852.00
2019-02-23T06:53:33.861Z,892.00
2019-02-23T06:54:33.853Z,932.00
2019-02-23T06:55:33.868Z,972.00
2019-02-23T06:56:34.739Z,1016.00
2019-02-23T06:57:33.811Z,1056.00
2019-02-23T06:58:33.798Z,1104.00
2019-02-23T06:59:33.800Z,1148.00
2019-02-23T07:00:33.828Z,1192.00
2019-02-23T07:01:33.820Z,1240.00
2019-02-23T07:02:34.734Z,1292.00
2019-02-23T07:03:34.117Z,1336.00
2019-02-23T07:04:33.732Z,1384.00
2019-02-23T07:05:33.745Z,1416.00
2019-02-23T07:06:33.724Z,1456.00
2019-02-23T07:07:33.764Z,1508.00
2019-02-23T07:08:33.690Z,1544.00
2019-02-23T07:09:33.710Z,1580.00
2019-02-23T07:10:33.686Z,1620.00
2019-02-23T07:11:33.686Z,1660.00
2019-02-23T07:12:33.645Z,1704.00
2019-02-23T07:13:33.707Z,1744.00
2019-02-23T07:14:33.646Z,1784.00
2019-02-23T07:15:33.979Z,1832.00
2019-02-23T07:16:33.705Z,1872.00
2019-02-23T07:17:33.676Z,1916.00
2019-02-23T07:18:33.610Z,1964.00
2019-02-23T07:19:33.603Z,2012.00
2019-02-23T07:20:43.448Z,2072.00
2019-02-23T07:21:34.587Z,2120.00
2019-02-23T07:22:34.029Z,2148.00
2019-02-23T07:23:33.541Z,2188.00
2019-02-23T07:24:33.536Z,2248.00
2019-02-23T07:25:33.553Z,2296.00
2019-02-23T07:26:33.509Z,2328.00
2019-02-23T07:27:33.495Z,2384.00
2019-02-23T07:28:33.482Z,2432.00
2019-02-23T07:29:33.855Z,2480.00
2019-02-23T07:30:33.474Z,2524.00
2019-02-23T07:31:33.522Z,2552.00
2019-02-23T07:32:33.543Z,2596.00
2019-02-23T07:33:33.464Z,2640.00
2019-02-23T07:34:33.446Z,2680.00
2019-02-23T07:35:33.432Z,2728.00
2019-02-23T07:36:33.907Z,2780.00
2019-02-23T07:37:33.471Z,2816.00
2019-02-23T07:38:35.526Z,2876.00
2019-02-23T07:39:33.376Z,2920.00
2019-02-23T07:40:33.484Z,2976.00
2019-02-23T07:41:33.353Z,3036.00
2019-02-23T07:42:33.364Z,3080.00
2019-02-23T07:43:33.778Z,3140.00
2019-02-23T07:44:33.332Z,3204.00
2019-02-23T07:45:33.332Z,3256.00
2019-02-23T07:46:33.319Z,3352.00
2019-02-23T07:47:33.329Z,3356.00
2019-02-23T07:48:33.781Z,3412.00
2019-02-23T07:49:33.477Z,3488.00
2019-02-23T07:50:34.676Z,3548.00
2019-02-23T07:51:33.242Z,3648.00
2019-02-23T07:52:33.246Z,3780.00
2019-02-23T07:53:33.268Z,4040.00
2019-02-23T07:54:33.218Z,4476.00
2019-02-23T07:55:33.303Z,5036.00
2019-02-23T07:56:35.107Z,5592.00
2019-02-23T07:57:33.652Z,6044.00
2019-02-23T07:58:33.203Z,6332.00
2019-02-23T07:59:33.157Z,6864.00
2019-02-23T08:00:33.192Z,6780.00
2019-02-23T08:01:33.287Z,6816.00
2019-02-23T08:02:33.141Z,6696.00
2019-02-23T08:03:33.153Z,6912.00
2019-02-23T08:04:33.475Z,6968.00
2019-02-23T08:05:33.112Z,6692.00
2019-02-23T08:06:33.104Z,6280.00
2019-02-23T08:07:33.152Z,5628.00
2019-02-23T08:08:33.105Z,5160.00
2019-02-23T08:09:33.087Z,4864.00
2019-02-23T08:10:33.706Z,4700.00
2019-02-23T08:11:33.078Z,4568.00
2019-02-23T08:12:33.035Z,4492.00
2019-02-23T08:13:33.246Z,4400.00
2019-02-23T08:14:33.019Z,4352.00
2019-02-23T08:15:33.053Z,4328.00
2019-02-23T08:16:33.005Z,4244.00
2019-02-23T08:17:33.384Z,4324.00
2019-02-23T08:18:33.003Z,4336.00
2019-02-23T08:19:32.996Z,4348.00
2019-02-23T08:20:33.698Z,4352.00
2019-02-23T08:21:34.791Z,4352.00
2019-02-23T08:22:37.469Z,4328.00
2019-02-23T08:23:33.762Z,4288.00
2019-02-23T08:24:32.940Z,4172.00
2019-02-23T08:25:33.884Z,4332.00
2019-02-23T08:26:32.928Z,4404.00
2019-02-23T08:27:32.872Z,4348.00
2019-02-23T08:28:33.903Z,4308.00
2019-02-23T08:29:32.873Z,4288.00
2019-02-23T08:30:32.873Z,4340.00
2019-02-23T08:31:32.936Z,4456.00
2019-02-23T08:32:34.777Z,4448.00
2019-02-23T08:33:32.830Z,4428.00
2019-02-23T08:34:33.665Z,4496.00
2019-02-23T08:35:32.796Z,4740.00
2019-02-23T08:36:32.781Z,4892.00
2019-02-23T08:37:32.826Z,5028.00
2019-02-23T08:38:32.762Z,5148.00
2019-02-23T08:39:32.799Z,5244.00
2019-02-23T08:40:32.799Z,5280.00
2019-02-23T08:41:32.778Z,5308.00
2019-02-23T08:42:32.808Z,5432.00
2019-02-23T08:43:32.848Z,5484.00
2019-02-23T08:44:32.729Z,5440.00
2019-02-23T08:45:32.732Z,5484.00
2019-02-23T08:46:32.691Z,5540.00
2019-02-23T08:47:33.923Z,5516.00
2019-02-23T08:48:33.444Z,5420.00
2019-02-23T08:49:32.728Z,5508.00
2019-02-23T08:50:32.727Z,5556.00
2019-02-23T08:51:32.676Z,5440.00
2019-02-23T08:52:32.678Z,5368.00
2019-02-23T08:53:32.693Z,5252.00
2019-02-23T08:54:32.654Z,5352.00
2019-02-23T08:55:32.636Z,5476.00
2019-02-23T08:56:32.583Z,5448.00
2019-02-23T08:57:32.567Z,5508.00
2019-02-23T08:58:32.561Z,5476.00
2019-02-23T08:59:32.552Z,5672.00
2019-02-23T09:00:32.668Z,5640.00
2019-02-23T09:01:32.697Z,5676.00
2019-02-23T09:02:32.529Z,5732.00
2019-02-23T09:03:32.515Z,5832.00
2019-02-23T09:04:32.515Z,5888.00
2019-02-23T09:05:32.551Z,6052.00
2019-02-23T09:06:32.745Z,6124.00
2019-02-23T09:07:33.390Z,6012.00
2019-02-23T09:08:32.600Z,5968.00
2019-02-23T09:09:34.759Z,5896.00
2019-02-23T09:10:32.734Z,6156.00
2019-02-23T09:11:34.650Z,6172.00
2019-02-23T09:12:40.538Z,6204.00
2019-02-23T09:13:34.515Z,6268.00
2019-02-23T09:14:33.981Z,6132.00
2019-02-23T09:15:33.693Z,5976.00
2019-02-23T09:16:36.557Z,6132.00
2019-02-23T09:17:32.717Z,6332.00
2019-02-23T09:18:32.388Z,6412.00
2019-02-23T09:19:32.454Z,6476.00
2019-02-23T09:20:32.362Z,6472.00
2019-02-23T09:21:32.533Z,6572.00
2019-02-23T09:22:32.302Z,6596.00
2019-02-23T09:23:32.453Z,6224.00
2019-02-23T09:24:32.341Z,6268.00
2019-02-23T09:25:32.331Z,6328.00
2019-02-23T09:26:32.312Z,6524.00
2019-02-23T09:27:32.265Z,6596.00
2019-02-23T09:28:32.487Z,6572.00
2019-02-23T09:29:32.242Z,6612.00
2019-02-23T09:30:32.294Z,6640.00
2019-02-23T09:31:32.278Z,6588.00
2019-02-23T09:32:32.269Z,6672.00
2019-02-23T09:33:32.511Z,6332.00
2019-02-23T09:34:32.224Z,6604.00
2019-02-23T09:35:37.208Z,6652.00
2019-02-23T09:36:32.211Z,6664.00
2019-02-23T09:37:33.069Z,6544.00
2019-02-23T09:38:32.549Z,6724.00
2019-02-23T09:39:32.983Z,6924.00
2019-02-23T09:40:32.363Z,7048.00
2019-02-23T09:41:32.346Z,7320.00
2019-02-23T09:42:32.599Z,7448.00
2019-02-23T09:43:32.153Z,7632.00
2019-02-23T09:44:32.137Z,7764.00
2019-02-23T09:45:32.063Z,7856.00
2019-02-23T09:46:32.058Z,7796.00
2019-02-23T09:47:32.053Z,8452.00
2019-02-23T09:48:32.728Z,8484.00
2019-02-23T09:49:32.123Z,8612.00
2019-02-23T09:50:32.148Z,8980.00
2019-02-23T09:51:32.061Z,8788.00
2019-02-23T09:52:32.029Z,9228.00
2019-02-23T09:53:32.708Z,9324.00
2019-02-23T09:54:32.021Z,9320.00
2019-02-23T09:55:32.089Z,9348.00
2019-02-23T09:56:32.095Z,9232.00
2019-02-23T09:57:31.951Z,9272.00
2019-02-23T09:58:32.753Z,9388.00
2019-02-23T09:59:31.921Z,9552.00
2019-02-23T10:00:32.692Z,9520.00
2019-02-23T10:01:31.973Z,9532.00
2019-02-23T10:02:31.904Z,9664.00
2019-02-23T10:03:31.930Z,9556.00
2019-02-23T10:04:32.204Z,9664.00
2019-02-23T10:05:32.011Z,9828.00
2019-02-23T10:06:32.166Z,9748.00
2019-02-23T10:07:32.609Z,10044.00
2019-02-23T10:08:31.943Z,9968.00
2019-02-23T10:09:32.734Z,9428.00
2019-02-23T10:10:31.826Z,9696.00
2019-02-23T10:11:31.962Z,9724.00
2019-02-23T10:14:23.728Z,10436.00
2019-02-23T10:15:22.545Z,10432.00
2019-02-23T10:16:22.703Z,10500.00
2019-02-23T10:17:22.493Z,10500.00
2019-02-23T10:18:22.519Z,10504.00
2019-02-23T10:19:22.482Z,10168.00
2019-02-23T10:20:23.639Z,9504.00
2019-02-23T10:21:22.861Z,9676.00
2019-02-23T10:22:22.602Z,9972.00
2019-02-23T10:23:22.565Z,9824.00
2019-02-23T10:24:24.727Z,10280.00
2019-02-23T10:25:23.823Z,10560.00
2019-02-23T10:26:23.733Z,10744.00
2019-02-23T10:27:22.365Z,10660.00
2019-02-23T10:28:22.466Z,10876.00
2019-02-23T10:29:22.392Z,11120.00
2019-02-23T10:30:22.452Z,11728.00
2019-02-23T10:31:22.901Z,11960.00
2019-02-23T10:32:22.315Z,12260.00
2019-02-23T10:33:22.837Z,12492.00
2019-02-23T10:34:22.377Z,12432.00
2019-02-23T10:35:22.496Z,12632.00
2019-02-23T10:36:23.231Z,12848.00
2019-02-23T10:37:23.391Z,12968.00
2019-02-23T10:38:22.319Z,13236.00
2019-02-23T10:39:22.258Z,13124.00
2019-02-23T10:40:22.686Z,13060.00
2019-02-23T10:41:22.259Z,12900.00
2019-02-23T10:42:22.274Z,12904.00
2019-02-23T10:43:23.781Z,12872.00
2019-02-23T10:44:22.424Z,12820.00
2019-02-23T10:45:22.364Z,12736.00
2019-02-23T10:46:22.182Z,12636.00
2019-02-23T10:47:23.767Z,12796.00
2019-02-23T10:48:22.149Z,12808.00
2019-02-23T10:49:22.317Z,12804.00
2019-02-23T10:50:22.280Z,12844.00
2019-02-23T10:51:22.262Z,12832.00
2019-02-23T10:52:22.141Z,13372.00
2019-02-23T10:53:32.445Z,13948.00
2019-02-23T10:54:23.323Z,13904.00
2019-02-23T10:55:22.213Z,13852.00
2019-02-23T10:56:22.106Z,13852.00
2019-02-23T10:57:22.107Z,14056.00
2019-02-23T10:58:22.939Z,14084.00
2019-02-23T10:59:22.278Z,14000.00
2019-02-23T11:00:23.845Z,14172.00
2019-02-23T11:01:22.082Z,14100.00
2019-02-23T11:02:22.029Z,14020.00
2019-02-23T11:03:22.018Z,14140.00
2019-02-23T11:04:22.391Z,14264.00
2019-02-23T11:05:23.756Z,14268.00
2019-02-23T11:06:22.519Z,14124.00
2019-02-23T11:07:22.557Z,14304.00
2019-02-23T11:08:22.280Z,14264.00
2019-02-23T11:09:22.150Z,14268.00
2019-02-23T11:10:23.804Z,14188.00
2019-02-23T11:11:22.156Z,14068.00
2019-02-23T11:12:22.420Z,14024.00
2019-02-23T11:13:22.174Z,13940.00
2019-02-23T11:14:21.886Z,13988.00
2019-02-23T11:15:21.868Z,14008.00
2019-02-23T11:16:21.860Z,14104.00
2019-02-23T11:17:22.090Z,14052.00
2019-02-23T11:18:23.485Z,14368.00
2019-02-23T11:19:22.550Z,14492.00
2019-02-23T11:20:23.682Z,14336.00
2019-02-23T11:21:21.906Z,14388.00
2019-02-23T11:22:22.489Z,14568.00
2019-02-23T11:23:21.985Z,14740.00
2019-02-23T11:24:23.188Z,14768.00
2019-02-23T11:25:22.445Z,14784.00
2019-02-23T11:26:23.189Z,15120.00
2019-02-23T11:27:22.539Z,15752.00
2019-02-23T11:28:22.361Z,16464.00
2019-02-23T11:29:22.721Z,17440.00
2019-02-23T11:30:22.831Z,18560.00
2019-02-23T11:31:21.874Z,20384.00
2019-02-23T11:32:21.807Z,22976.00
2019-02-23T11:33:21.708Z,30560.00
2019-02-23T11:34:26.813Z,42560.00
2019-02-23T11:35:21.912Z,51680.00
2019-02-23T11:36:22.136Z,57824.00
2019-02-23T11:37:21.994Z,56384.00
2019-02-23T11:38:21.655Z,64672.00
2019-02-23T11:39:22.742Z,69280.00
2019-02-23T11:40:23.567Z,66560.00
2019-02-23T11:41:21.969Z,70560.00
2019-02-23T11:42:21.989Z,71520.00
2019-02-23T11:43:22.167Z,69984.00
2019-02-23T11:44:21.566Z,68768.00
2019-02-23T11:45:21.554Z,70176.00
2019-02-23T11:46:21.894Z,64192.00
2019-02-23T11:47:21.761Z,63072.00
2019-02-23T11:48:22.927Z,68640.00
2019-02-23T11:49:21.817Z,73088.00
2019-02-23T11:50:21.996Z,74048.00
2019-02-23T11:51:21.754Z,72224.00
2019-02-23T11:52:22.751Z,78368.00
2019-02-23T11:53:21.854Z,73280.00
2019-02-23T11:54:21.801Z,71008.00
2019-02-23T11:55:22.024Z,68992.00
2019-02-23T11:56:22.012Z,68000.00
2019-02-23T11:57:21.676Z,54080.00
2019-02-23T11:58:21.447Z,67296.00
2019-02-23T11:59:21.489Z,70624.00
2019-02-23T12:00:21.737Z,73472.00
2019-02-23T12:01:21.605Z,73856.00
2019-02-23T12:02:21.833Z,67008.00
2019-02-23T12:03:21.360Z,61728.00
2019-02-23T12:04:21.420Z,57152.00
2019-02-23T12:05:21.350Z,57600.00
2019-02-23T12:06:21.519Z,57536.00
2019-02-23T12:07:21.378Z,52160.00
2019-02-23T12:08:21.599Z,50912.00
2019-02-23T12:09:22.019Z,51904.00
2019-02-23T12:10:21.335Z,49536.00
2019-02-23T12:11:21.392Z,48736.00
2019-02-23T12:12:22.907Z,51808.00
2019-02-23T12:13:21.396Z,52384.00
2019-02-23T12:14:21.720Z,51872.00
2019-02-23T12:15:21.274Z,51264.00
2019-02-23T12:16:24.730Z,46368.00
2019-02-23T12:17:21.744Z,47328.00
2019-02-23T12:18:22.751Z,48416.00
2019-02-23T12:19:21.746Z,45792.00
2019-02-23T12:20:21.271Z,47456.00
2019-02-23T12:21:21.176Z,42624.00
2019-02-23T12:22:21.173Z,43168.00
2019-02-23T12:23:21.483Z,43328.00
2019-02-23T12:24:21.183Z,44640.00
2019-02-23T12:25:21.215Z,47648.00
2019-02-23T12:26:21.803Z,45792.00
2019-02-23T12:27:21.223Z,45472.00
2019-02-23T12:28:21.807Z,48832.00